sensor_id;sensor_type;location;lat;lon;timestamp;pressure;altitude;pressure_sealevel;temperature;humidity
65151;BME280;51918;51.856;0.150;2023-04-09T00:03:22;101641.72;;;7.73;84.55
65151;BME280;51918;51.856;0.150;2023-04-09T00:14:07;101633.09;;;7.74;84.88
65151;BME280;51918;51.856;0.150;2023-04-09T00:19:22;101631.84;;;7.80;84.02
65151;BME280;51918;51.856;0.150;2023-04-09T00:24:35;101623.44;;;7.78;85.15
65151;BME280;51918;51.856;0.150;2023-04-09T00:29:53;101624.50;;;7.64;87.49
65151;BME280;51918;51.856;0.150;2023-04-09T00:35:06;101607.63;;;7.84;84.98
65151;BME280;51918;51.856;0.150;2023-04-09T00:40:08;101607.84;;;8.03;84.75
65151;BME280;51918;51.856;0.150;2023-04-09T00:45:19;101599.34;;;8.14;82.65
65151;BME280;51918;51.856;0.150;2023-04-09T00:50:25;101591.19;;;8.09;82.86
65151;BME280;51918;51.856;0.150;2023-04-09T00:55:26;101585.47;;;8.17;82.40
65151;BME280;51918;51.856;0.150;2023-04-09T01:00:43;101575.34;;;8.15;81.40
65151;BME280;51918;51.856;0.150;2023-04-09T01:05:59;101561.84;;;8.13;81.31
65151;BME280;51918;51.856;0.150;2023-04-09T01:11:07;101565.75;;;8.17;80.89
65151;BME280;51918;51.856;0.150;2023-04-09T01:16:28;101556.94;;;8.10;81.53
65151;BME280;51918;51.856;0.150;2023-04-09T01:21:30;101549.47;;;8.18;81.34
65151;BME280;51918;51.856;0.150;2023-04-09T01:26:44;101548.41;;;8.21;81.18
65151;BME280;51918;51.856;0.150;2023-04-09T01:32:13;101550.97;;;8.21;81.54
65151;BME280;51918;51.856;0.150;2023-04-09T01:37:22;101543.59;;;8.28;81.71
65151;BME280;51918;51.856;0.150;2023-04-09T01:42:23;101535.47;;;8.34;80.83
65151;BME280;51918;51.856;0.150;2023-04-09T01:47:26;101540.00;;;8.30;80.88
65151;BME280;51918;51.856;0.150;2023-04-09T01:52:53;101543.59;;;8.28;79.99
65151;BME280;51918;51.856;0.150;2023-04-09T01:58:00;101540.59;;;8.22;80.66
65151;BME280;51918;51.856;0.150;2023-04-09T02:03:12;101528.00;;;8.19;80.69
65151;BME280;51918;51.856;0.150;2023-04-09T02:08:19;101522.69;;;8.11;79.70
65151;BME280;51918;51.856;0.150;2023-04-09T02:13:32;101519.13;;;8.02;80.42
65151;BME280;51918;51.856;0.150;2023-04-09T02:18:35;101522.72;;;7.89;80.42
65151;BME280;51918;51.856;0.150;2023-04-09T02:24:01;101517.38;;;7.80;80.98
65151;BME280;51918;51.856;0.150;2023-04-09T02:29:02;101513.69;;;7.73;81.60
65151;BME280;51918;51.856;0.150;2023-04-09T02:34:03;101516.47;;;7.59;82.33
65151;BME280;51918;51.856;0.150;2023-04-09T02:39:04;101518.13;;;7.60;82.56
65151;BME280;51918;51.856;0.150;2023-04-09T02:44:04;101501.81;;;7.50;83.16
65151;BME280;51918;51.856;0.150;2023-04-09T02:49:06;101505.78;;;7.54;82.81
65151;BME280;51918;51.856;0.150;2023-04-09T02:54:22;101507.06;;;7.48;84.92
65151;BME280;51918;51.856;0.150;2023-04-09T02:59:22;101494.16;;;7.50;83.80
65151;BME280;51918;51.856;0.150;2023-04-09T03:04:24;101487.28;;;7.50;85.15
65151;BME280;51918;51.856;0.150;2023-04-09T03:09:27;101493.78;;;7.54;85.09
65151;BME280;51918;51.856;0.150;2023-04-09T03:14:31;101485.31;;;7.42;85.29
65151;BME280;51918;51.856;0.150;2023-04-09T03:19:33;101482.53;;;7.34;86.04
65151;BME280;51918;51.856;0.150;2023-04-09T03:24:36;101476.25;;;7.27;86.41
65151;BME280;51918;51.856;0.150;2023-04-09T03:29:37;101479.47;;;7.18;86.15
65151;BME280;51918;51.856;0.150;2023-04-09T03:34:38;101479.81;;;7.13;87.49
65151;BME280;51918;51.856;0.150;2023-04-09T03:39:39;101477.50;;;7.21;86.50
65151;BME280;51918;51.856;0.150;2023-04-09T03:44:39;101477.06;;;7.16;88.19
65151;BME280;51918;51.856;0.150;2023-04-09T03:49:49;101470.88;;;7.19;87.34
65151;BME280;51918;51.856;0.150;2023-04-09T03:54:52;101473.91;;;7.13;87.61
65151;BME280;51918;51.856;0.150;2023-04-09T03:59:56;101472.75;;;7.17;88.37
65151;BME280;51918;51.856;0.150;2023-04-09T04:04:58;101459.16;;;7.16;88.22
65151;BME280;51918;51.856;0.150;2023-04-09T04:09:58;101473.41;;;7.08;88.08
65151;BME280;51918;51.856;0.150;2023-04-09T04:15:02;101468.97;;;6.87;89.13
65151;BME280;51918;51.856;0.150;2023-04-09T04:20:17;101474.53;;;6.81;90.83
65151;BME280;51918;51.856;0.150;2023-04-09T04:25:17;101472.00;;;6.92;89.90
65151;BME280;51918;51.856;0.150;2023-04-09T04:30:18;101477.34;;;6.89;90.06
65151;BME280;51918;51.856;0.150;2023-04-09T04:35:22;101481.44;;;6.92;90.33
65151;BME280;51918;51.856;0.150;2023-04-09T04:40:22;101468.19;;;6.98;90.57
65151;BME280;51918;51.856;0.150;2023-04-09T04:45:23;101468.44;;;7.06;91.02
65151;BME280;51918;51.856;0.150;2023-04-09T04:50:27;101468.44;;;7.06;90.33
65151;BME280;51918;51.856;0.150;2023-04-09T04:55:28;101470.16;;;6.94;90.45
65151;BME280;51918;51.856;0.150;2023-04-09T05:00:28;101472.09;;;6.79;91.88
65151;BME280;51918;51.856;0.150;2023-04-09T05:05:33;101469.22;;;6.95;91.50
65151;BME280;51918;51.856;0.150;2023-04-09T05:10:34;101477.13;;;6.92;92.09
65151;BME280;51918;51.856;0.150;2023-04-09T05:15:37;101465.19;;;7.04;91.36
65151;BME280;51918;51.856;0.150;2023-04-09T05:20:39;101472.03;;;7.15;91.53
65151;BME280;51918;51.856;0.150;2023-04-09T05:25:40;101453.66;;;7.10;89.97
65151;BME280;51918;51.856;0.150;2023-04-09T05:30:40;101453.53;;;7.11;91.05
65151;BME280;51918;51.856;0.150;2023-04-09T05:35:42;101458.91;;;7.08;91.12
65151;BME280;51918;51.856;0.150;2023-04-09T05:40:43;101462.50;;;7.17;91.38
65151;BME280;51918;51.856;0.150;2023-04-09T05:45:43;101459.25;;;7.15;90.69
65151;BME280;51918;51.856;0.150;2023-04-09T05:50:49;101456.69;;;7.15;91.38
65151;BME280;51918;51.856;0.150;2023-04-09T05:55:50;101461.09;;;7.24;91.38
65151;BME280;51918;51.856;0.150;2023-04-09T06:00:50;101461.09;;;7.35;91.22
65151;BME280;51918;51.856;0.150;2023-04-09T06:05:55;101462.97;;;7.45;90.34
65151;BME280;51918;51.856;0.150;2023-04-09T06:10:56;101466.91;;;7.37;89.71
65151;BME280;51918;51.856;0.150;2023-04-09T06:15:58;101454.59;;;7.42;91.12
65151;BME280;51918;51.856;0.150;2023-04-09T06:21:04;101445.75;;;7.47;91.38
65151;BME280;51918;51.856;0.150;2023-04-09T06:26:05;101444.44;;;7.52;91.14
65151;BME280;51918;51.856;0.150;2023-04-09T06:31:06;101447.59;;;7.56;91.66
65151;BME280;51918;51.856;0.150;2023-04-09T06:36:08;101451.78;;;7.68;91.05
65151;BME280;51918;51.856;0.150;2023-04-09T06:41:08;101453.97;;;7.73;91.11
65151;BME280;51918;51.856;0.150;2023-04-09T06:46:09;101449.06;;;7.70;91.18
65151;BME280;51918;51.856;0.150;2023-04-09T06:51:23;101440.97;;;7.53;92.31
65151;BME280;51918;51.856;0.150;2023-04-09T06:56:24;101440.81;;;7.77;90.62
65151;BME280;51918;51.856;0.150;2023-04-09T07:01:24;101433.91;;;7.78;91.16
65151;BME280;51918;51.856;0.150;2023-04-09T07:06:28;101432.69;;;7.72;91.99
65151;BME280;51918;51.856;0.150;2023-04-09T07:11:31;101428.66;;;7.91;90.23
65151;BME280;51918;51.856;0.150;2023-04-09T07:16:32;101423.69;;;8.10;90.48
65151;BME280;51918;51.856;0.150;2023-04-09T07:21:36;101437.59;;;8.29;90.22
65151;BME280;51918;51.856;0.150;2023-04-09T07:26:37;101432.81;;;8.35;89.86
65151;BME280;51918;51.856;0.150;2023-04-09T07:31:38;101425.06;;;8.47;90.21
65151;BME280;51918;51.856;0.150;2023-04-09T07:36:41;101426.50;;;8.60;88.87
65151;BME280;51918;51.856;0.150;2023-04-09T07:41:41;101420.53;;;8.60;88.54
65151;BME280;51918;51.856;0.150;2023-04-09T07:46:42;101393.78;;;8.74;88.72
65151;BME280;51918;51.856;0.150;2023-04-09T07:51:44;101396.84;;;8.98;87.63
65151;BME280;51918;51.856;0.150;2023-04-09T07:56:45;101398.88;;;9.04;87.30
65151;BME280;51918;51.856;0.150;2023-04-09T08:01:45;101404.81;;;9.45;86.37
65151;BME280;51918;51.856;0.150;2023-04-09T08:06:47;101409.53;;;9.40;84.53
65151;BME280;51918;51.856;0.150;2023-04-09T08:11:47;101407.00;;;9.60;84.82
65151;BME280;51918;51.856;0.150;2023-04-09T08:16:48;101394.47;;;9.96;84.97
65151;BME280;51918;51.856;0.150;2023-04-09T08:21:50;101406.09;;;10.19;81.39
65151;BME280;51918;51.856;0.150;2023-04-09T08:26:50;101408.06;;;10.45;80.29
65151;BME280;51918;51.856;0.150;2023-04-09T08:31:51;101405.66;;;10.34;80.70
65151;BME280;51918;51.856;0.150;2023-04-09T08:37:11;101410.66;;;10.55;79.93
65151;BME280;51918;51.856;0.150;2023-04-09T08:42:13;101405.31;;;10.66;79.11
65151;BME280;51918;51.856;0.150;2023-04-09T08:47:14;101404.53;;;10.65;79.18
65151;BME280;51918;51.856;0.150;2023-04-09T08:52:16;101398.25;;;11.05;79.11
65151;BME280;51918;51.856;0.150;2023-04-09T08:57:17;101406.56;;;11.90;79.64
65151;BME280;51918;51.856;0.150;2023-04-09T09:02:18;101402.31;;;12.51;71.79
65151;BME280;51918;51.856;0.150;2023-04-09T09:07:20;101393.31;;;12.82;68.95
65151;BME280;51918;51.856;0.150;2023-04-09T09:12:31;101388.91;;;13.08;65.53
65151;BME280;51918;51.856;0.150;2023-04-09T09:17:33;101389.84;;;13.58;65.45
65151;BME280;51918;51.856;0.150;2023-04-09T09:22:55;101394.66;;;14.43;62.99
65151;BME280;51918;51.856;0.150;2023-04-09T09:28:06;101399.16;;;14.66;59.38
65151;BME280;51918;51.856;0.150;2023-04-09T09:33:08;101395.09;;;14.71;58.66
65151;BME280;51918;51.856;0.150;2023-04-09T09:38:11;101391.50;;;14.89;58.53
65151;BME280;51918;51.856;0.150;2023-04-09T09:43:12;101405.91;;;15.46;55.78
65151;BME280;51918;51.856;0.150;2023-04-09T09:48:13;101393.28;;;15.66;55.86
65151;BME280;51918;51.856;0.150;2023-04-09T09:53:16;101398.91;;;16.00;52.53
65151;BME280;51918;51.856;0.150;2023-04-09T09:58:24;101387.66;;;16.23;52.02
65151;BME280;51918;51.856;0.150;2023-04-09T10:03:27;101391.25;;;16.52;51.81
65151;BME280;51918;51.856;0.150;2023-04-09T10:08:30;101379.25;;;16.66;51.03
65151;BME280;51918;51.856;0.150;2023-04-09T10:13:34;101369.19;;;17.50;53.44
65151;BME280;51918;51.856;0.150;2023-04-09T10:18:36;101375.34;;;17.64;48.84
65151;BME280;51918;51.856;0.150;2023-04-09T10:23:40;101358.44;;;17.53;47.58
65151;BME280;51918;51.856;0.150;2023-04-09T10:28:42;101349.94;;;17.44;48.99
65151;BME280;51918;51.856;0.150;2023-04-09T10:33:42;101339.28;;;17.39;49.34
65151;BME280;51918;51.856;0.150;2023-04-09T10:38:45;101332.63;;;17.58;47.43
65151;BME280;51918;51.856;0.150;2023-04-09T10:43:46;101323.78;;;17.31;48.88
65151;BME280;51918;51.856;0.150;2023-04-09T10:48:47;101317.66;;;17.60;46.58
65151;BME280;51918;51.856;0.150;2023-04-09T10:53:50;101325.44;;;17.82;45.65
65151;BME280;51918;51.856;0.150;2023-04-09T10:58:51;101319.97;;;17.98;45.04
65151;BME280;51918;51.856;0.150;2023-04-09T11:04:06;101309.72;;;17.69;43.63
65151;BME280;51918;51.856;0.150;2023-04-09T11:09:09;101301.31;;;17.95;45.52
65151;BME280;51918;51.856;0.150;2023-04-09T11:14:09;101303.19;;;17.51;46.11
65151;BME280;51918;51.856;0.150;2023-04-09T11:19:10;101297.38;;;17.06;46.52
65151;BME280;51918;51.856;0.150;2023-04-09T11:24:12;101291.41;;;17.55;46.68
65151;BME280;51918;51.856;0.150;2023-04-09T11:29:13;101293.22;;;17.61;45.28
65151;BME280;51918;51.856;0.150;2023-04-09T11:34:14;101270.06;;;18.36;45.26
65151;BME280;51918;51.856;0.150;2023-04-09T11:39:16;101263.53;;;17.71;42.62
65151;BME280;51918;51.856;0.150;2023-04-09T11:44:17;101264.13;;;17.73;43.30
65151;BME280;51918;51.856;0.150;2023-04-09T11:49:17;101241.09;;;18.66;41.87
65151;BME280;51918;51.856;0.150;2023-04-09T11:54:20;101244.97;;;19.37;40.26
65151;BME280;51918;51.856;0.150;2023-04-09T11:59:21;101239.97;;;19.48;40.00
65151;BME280;51918;51.856;0.150;2023-04-09T12:04:21;101240.13;;;19.34;38.41
65151;BME280;51918;51.856;0.150;2023-04-09T12:09:24;101232.91;;;19.36;37.97
65151;BME280;51918;51.856;0.150;2023-04-09T12:14:24;101216.09;;;18.85;37.84
65151;BME280;51918;51.856;0.150;2023-04-09T12:19:27;101214.47;;;19.17;39.44
65151;BME280;51918;51.856;0.150;2023-04-09T12:24:29;101216.25;;;19.63;41.07
65151;BME280;51918;51.856;0.150;2023-04-09T12:29:29;101193.94;;;20.58;38.21
65151;BME280;51918;51.856;0.150;2023-04-09T12:34:30;101195.22;;;20.80;38.43
65151;BME280;51918;51.856;0.150;2023-04-09T12:39:32;101171.50;;;20.50;36.45
65151;BME280;51918;51.856;0.150;2023-04-09T12:44:32;101176.97;;;19.97;37.21
65151;BME280;51918;51.856;0.150;2023-04-09T12:49:32;101165.78;;;19.83;37.82
65151;BME280;51918;51.856;0.150;2023-04-09T12:54:34;101162.88;;;20.04;38.10
65151;BME280;51918;51.856;0.150;2023-04-09T12:59:35;101164.34;;;20.64;37.98
65151;BME280;51918;51.856;0.150;2023-04-09T13:04:36;101163.28;;;21.22;35.13
65151;BME280;51918;51.856;0.150;2023-04-09T13:09:38;101161.69;;;20.96;35.39
65151;BME280;51918;51.856;0.150;2023-04-09T13:14:38;101151.75;;;20.54;35.44
65151;BME280;51918;51.856;0.150;2023-04-09T13:19:39;101130.47;;;20.51;37.23
65151;BME280;51918;51.856;0.150;2023-04-09T13:24:41;101132.31;;;20.12;36.52
65151;BME280;51918;51.856;0.150;2023-04-09T13:29:42;101115.88;;;19.53;36.17
65151;BME280;51918;51.856;0.150;2023-04-09T13:34:42;101111.84;;;19.63;35.65
65151;BME280;51918;51.856;0.150;2023-04-09T13:39:45;101111.22;;;19.75;36.11
65151;BME280;51918;51.856;0.150;2023-04-09T13:44:45;101117.03;;;19.70;35.56
65151;BME280;51918;51.856;0.150;2023-04-09T13:49:46;101106.28;;;19.33;36.02
65151;BME280;51918;51.856;0.150;2023-04-09T13:54:48;101105.75;;;19.04;36.64
65151;BME280;51918;51.856;0.150;2023-04-09T13:59:48;101095.31;;;19.11;37.35
65151;BME280;51918;51.856;0.150;2023-04-09T14:04:49;101094.13;;;19.00;38.00
65151;BME280;51918;51.856;0.150;2023-04-09T14:09:51;101075.28;;;18.52;37.55
65151;BME280;51918;51.856;0.150;2023-04-09T14:14:52;101072.25;;;18.35;37.66
65151;BME280;51918;51.856;0.150;2023-04-09T14:19:52;101065.19;;;17.89;38.34
65151;BME280;51918;51.856;0.150;2023-04-09T14:24:55;101054.16;;;17.80;38.52
65151;BME280;51918;51.856;0.150;2023-04-09T14:29:55;101049.38;;;17.83;39.19
65151;BME280;51918;51.856;0.150;2023-04-09T14:34:56;101044.28;;;17.62;38.78
65151;BME280;51918;51.856;0.150;2023-04-09T14:39:58;101052.28;;;16.84;39.65
65151;BME280;51918;51.856;0.150;2023-04-09T14:44:59;101046.00;;;17.00;40.20
65151;BME280;51918;51.856;0.150;2023-04-09T14:49:59;101033.97;;;16.99;40.77
65151;BME280;51918;51.856;0.150;2023-04-09T14:55:01;101029.13;;;16.89;41.38
65151;BME280;51918;51.856;0.150;2023-04-09T15:00:02;101026.22;;;16.77;41.20
65151;BME280;51918;51.856;0.150;2023-04-09T15:05:04;101024.53;;;16.63;41.83
65151;BME280;51918;51.856;0.150;2023-04-09T15:10:07;101028.78;;;16.71;41.13
65151;BME280;51918;51.856;0.150;2023-04-09T15:15:09;101021.69;;;16.58;42.00
65151;BME280;51918;51.856;0.150;2023-04-09T15:20:10;101031.09;;;16.59;42.07
65151;BME280;51918;51.856;0.150;2023-04-09T15:25:12;101022.44;;;16.52;41.65
65151;BME280;51918;51.856;0.150;2023-04-09T15:30:13;101019.88;;;16.30;43.34
65151;BME280;51918;51.856;0.150;2023-04-09T15:35:14;101024.41;;;16.50;43.48
65151;BME280;51918;51.856;0.150;2023-04-09T15:40:16;101014.03;;;16.50;42.99
65151;BME280;51918;51.856;0.150;2023-04-09T15:45:17;101005.47;;;16.28;43.51
65151;BME280;51918;51.856;0.150;2023-04-09T15:50:18;101000.81;;;16.45;43.46
65151;BME280;51918;51.856;0.150;2023-04-09T15:55:20;101000.78;;;16.38;43.68
65151;BME280;51918;51.856;0.150;2023-04-09T16:00:20;101010.50;;;16.29;44.05
65151;BME280;51918;51.856;0.150;2023-04-09T16:05:22;101002.22;;;16.19;45.11
65151;BME280;51918;51.856;0.150;2023-04-09T16:10:24;100992.38;;;16.14;45.45
65151;BME280;51918;51.856;0.150;2023-04-09T16:15:26;100994.19;;;16.14;45.31
65151;BME280;51918;51.856;0.150;2023-04-09T16:20:26;100996.34;;;16.10;45.95
65151;BME280;51918;51.856;0.150;2023-04-09T16:25:29;100994.44;;;15.97;45.66
65151;BME280;51918;51.856;0.150;2023-04-09T16:30:29;100982.47;;;15.60;46.22
65151;BME280;51918;51.856;0.150;2023-04-09T16:35:30;100970.47;;;15.59;46.37
65151;BME280;51918;51.856;0.150;2023-04-09T16:40:32;100965.50;;;15.57;46.42
65151;BME280;51918;51.856;0.150;2023-04-09T16:45:33;100953.25;;;15.51;46.54
65151;BME280;51918;51.856;0.150;2023-04-09T16:50:34;100952.59;;;15.64;47.77
65151;BME280;51918;51.856;0.150;2023-04-09T16:55:36;100952.53;;;15.57;49.99
65151;BME280;51918;51.856;0.150;2023-04-09T17:00:37;100948.53;;;15.40;50.19
65151;BME280;51918;51.856;0.150;2023-04-09T17:05:37;100937.25;;;15.11;51.51
65151;BME280;51918;51.856;0.150;2023-04-09T17:10:39;100916.53;;;14.96;52.21
65151;BME280;51918;51.856;0.150;2023-04-09T17:15:40;100927.56;;;14.75;52.83
65151;BME280;51918;51.856;0.150;2023-04-09T17:20:41;100928.94;;;14.56;53.41
65151;BME280;51918;51.856;0.150;2023-04-09T17:25:43;100920.19;;;14.57;53.29
65151;BME280;51918;51.856;0.150;2023-04-09T17:30:44;100912.88;;;14.61;53.20
65151;BME280;51918;51.856;0.150;2023-04-09T17:35:44;100900.25;;;14.58;53.66
65151;BME280;51918;51.856;0.150;2023-04-09T17:40:46;100903.13;;;14.63;52.98
65151;BME280;51918;51.856;0.150;2023-04-09T17:45:47;100898.75;;;14.64;53.30
65151;BME280;51918;51.856;0.150;2023-04-09T17:50:48;100903.69;;;14.58;52.78
65151;BME280;51918;51.856;0.150;2023-04-09T17:55:50;100901.97;;;14.66;52.68
65151;BME280;51918;51.856;0.150;2023-04-09T18:00:51;100900.72;;;14.47;51.45
65151;BME280;51918;51.856;0.150;2023-04-09T18:05:52;100899.81;;;14.40;49.04
65151;BME280;51918;51.856;0.150;2023-04-09T18:10:54;100896.59;;;14.23;46.39
65151;BME280;51918;51.856;0.150;2023-04-09T18:15:55;100891.44;;;14.00;44.18
65151;BME280;51918;51.856;0.150;2023-04-09T18:26:16;100889.97;;;13.82;44.00
65151;BME280;51918;51.856;0.150;2023-04-09T18:31:17;100904.19;;;13.55;44.07
65151;BME280;51918;51.856;0.150;2023-04-09T18:36:17;100898.13;;;13.40;44.86
65151;BME280;51918;51.856;0.150;2023-04-09T18:41:23;100909.03;;;13.27;44.79
65151;BME280;51918;51.856;0.150;2023-04-09T18:46:23;100903.94;;;13.19;45.78
65151;BME280;51918;51.856;0.150;2023-04-09T18:51:36;100912.47;;;13.19;46.04
65151;BME280;51918;51.856;0.150;2023-04-09T18:56:54;100906.84;;;13.15;47.31
65151;BME280;51918;51.856;0.150;2023-04-09T19:01:54;100915.25;;;13.09;48.00
65151;BME280;51918;51.856;0.150;2023-04-09T19:07:07;100900.75;;;13.08;48.23
65151;BME280;51918;51.856;0.150;2023-04-09T19:12:09;100895.72;;;13.07;49.18
65151;BME280;51918;51.856;0.150;2023-04-09T19:17:12;100888.41;;;12.87;49.69
65151;BME280;51918;51.856;0.150;2023-04-09T19:22:13;100884.25;;;12.70;50.57
65151;BME280;51918;51.856;0.150;2023-04-09T19:27:22;100875.88;;;12.68;50.99
65151;BME280;51918;51.856;0.150;2023-04-09T19:38:08;100874.94;;;12.61;50.68
65151;BME280;51918;51.856;0.150;2023-04-09T19:43:33;100881.25;;;12.33;51.20
65151;BME280;51918;51.856;0.150;2023-04-09T19:48:33;100878.69;;;12.33;51.01
65151;BME280;51918;51.856;0.150;2023-04-09T19:53:34;100881.75;;;12.29;51.26
65151;BME280;51918;51.856;0.150;2023-04-09T19:58:37;100884.47;;;12.36;51.46
65151;BME280;51918;51.856;0.150;2023-04-09T20:03:58;100890.78;;;12.33;51.08
65151;BME280;51918;51.856;0.150;2023-04-09T20:09:01;100898.38;;;12.26;51.66
65151;BME280;51918;51.856;0.150;2023-04-09T20:14:03;100898.84;;;12.22;51.38
65151;BME280;51918;51.856;0.150;2023-04-09T20:19:04;100888.53;;;12.13;51.65
65151;BME280;51918;51.856;0.150;2023-04-09T20:24:05;100879.53;;;12.09;51.79
65151;BME280;51918;51.856;0.150;2023-04-09T20:29:07;100878.56;;;11.94;52.10
65151;BME280;51918;51.856;0.150;2023-04-09T20:34:08;100881.13;;;11.78;52.44
65151;BME280;51918;51.856;0.150;2023-04-09T20:39:09;100867.28;;;11.70;52.68
65151;BME280;51918;51.856;0.150;2023-04-09T20:44:43;100864.03;;;11.52;52.65
65151;BME280;51918;51.856;0.150;2023-04-09T20:49:44;100863.09;;;11.53;52.31
65151;BME280;51918;51.856;0.150;2023-04-09T20:54:45;100863.06;;;11.61;52.10
65151;BME280;51918;51.856;0.150;2023-04-09T20:59:47;100862.59;;;11.74;51.80
65151;BME280;51918;51.856;0.150;2023-04-09T21:04:47;100852.28;;;11.74;51.26
65151;BME280;51918;51.856;0.150;2023-04-09T21:09:48;100856.97;;;11.70;51.35
65151;BME280;51918;51.856;0.150;2023-04-09T21:14:53;100837.47;;;11.68;51.55
65151;BME280;51918;51.856;0.150;2023-04-09T21:19:54;100828.94;;;11.67;51.88
65151;BME280;51918;51.856;0.150;2023-04-09T21:24:54;100817.81;;;11.67;51.82
65151;BME280;51918;51.856;0.150;2023-04-09T21:30:01;100814.28;;;11.60;52.56
65151;BME280;51918;51.856;0.150;2023-04-09T21:35:03;100813.13;;;11.46;52.84
65151;BME280;51918;51.856;0.150;2023-04-09T21:40:16;100805.25;;;11.31;53.38
65151;BME280;51918;51.856;0.150;2023-04-09T21:45:20;100798.63;;;11.28;54.22
65151;BME280;51918;51.856;0.150;2023-04-09T21:50:21;100798.75;;;11.27;54.24
65151;BME280;51918;51.856;0.150;2023-04-09T21:55:22;100792.16;;;11.24;55.11
65151;BME280;51918;51.856;0.150;2023-04-09T22:00:24;100789.78;;;11.31;55.34
65151;BME280;51918;51.856;0.150;2023-04-09T22:05:24;100786.09;;;11.34;55.34
65151;BME280;51918;51.856;0.150;2023-04-09T22:10:25;100783.69;;;11.32;55.59
65151;BME280;51918;51.856;0.150;2023-04-09T22:15:30;100782.19;;;11.21;55.94
65151;BME280;51918;51.856;0.150;2023-04-09T22:20:31;100781.25;;;11.30;55.51
65151;BME280;51918;51.856;0.150;2023-04-09T22:25:32;100779.47;;;11.31;55.72
65151;BME280;51918;51.856;0.150;2023-04-09T22:30:34;100762.44;;;11.30;55.84
65151;BME280;51918;51.856;0.150;2023-04-09T22:35:34;100751.16;;;11.23;56.13
65151;BME280;51918;51.856;0.150;2023-04-09T22:40:35;100753.72;;;11.15;56.06
65151;BME280;51918;51.856;0.150;2023-04-09T22:45:37;100742.75;;;11.13;55.91
65151;BME280;51918;51.856;0.150;2023-04-09T22:50:37;100737.91;;;11.09;56.63
65151;BME280;51918;51.856;0.150;2023-04-09T22:55:38;100723.28;;;11.10;56.75
65151;BME280;51918;51.856;0.150;2023-04-09T23:00:40;100723.09;;;11.03;56.68
65151;BME280;51918;51.856;0.150;2023-04-09T23:05:41;100714.75;;;11.09;56.78
65151;BME280;51918;51.856;0.150;2023-04-09T23:10:42;100711.22;;;11.02;56.83
65151;BME280;51918;51.856;0.150;2023-04-09T23:15:44;100700.59;;;10.89;57.53
65151;BME280;51918;51.856;0.150;2023-04-09T23:20:44;100695.28;;;10.82;57.50
65151;BME280;51918;51.856;0.150;2023-04-09T23:25:45;100694.16;;;10.93;57.30
65151;BME280;51918;51.856;0.150;2023-04-09T23:30:47;100687.25;;;11.02;57.14
65151;BME280;51918;51.856;0.150;2023-04-09T23:35:48;100685.16;;;10.97;56.88
65151;BME280;51918;51.856;0.150;2023-04-09T23:40:48;100663.44;;;11.00;56.95
65151;BME280;51918;51.856;0.150;2023-04-09T23:45:50;100655.53;;;11.01;57.26
65151;BME280;51918;51.856;0.150;2023-04-09T23:50:51;100641.56;;;10.96;57.55
65151;BME280;51918;51.856;0.150;2023-04-09T23:55:51;100629.31;;;10.89;57.78
